sensor_id;sensor_type;location;lat;lon;timestamp;temperature;humidity
16128;DHT22;8168;49.036;7.690;2024-03-08T00:32:28;5.90;99.90
16128;DHT22;8168;49.036;7.690;2024-03-08T00:34:59;5.80;99.90
16128;DHT22;8168;49.036;7.690;2024-03-08T00:37:30;5.80;99.90
16128;DHT22;8168;49.036;7.690;2024-03-08T00:40:01;5.80;99.90
16128;DHT22;8168;49.036;7.690;2024-03-08T00:42:31;5.80;99.90
16128;DHT22;8168;49.036;7.690;2024-03-08T00:45:04;5.80;99.90
16128;DHT22;8168;49.036;7.690;2024-03-08T00:50:06;5.80;99.90
16128;DHT22;8168;49.036;7.690;2024-03-08T00:52:37;5.80;99.90
16128;DHT22;8168;49.036;7.690;2024-03-08T00:55:08;5.80;99.90
16128;DHT22;8168;49.036;7.690;2024-03-08T00:57:41;5.70;99.90
16128;DHT22;8168;49.036;7.690;2024-03-08T01:10:17;5.70;99.90
16128;DHT22;8168;49.036;7.690;2024-03-08T01:15:20;5.60;99.90
16128;DHT22;8168;49.036;7.690;2024-03-08T01:22:53;5.60;99.90
16128;DHT22;8168;49.036;7.690;2024-03-08T01:27:54;5.60;99.90
16128;DHT22;8168;49.036;7.690;2024-03-08T01:43:25;5.40;99.90
16128;DHT22;8168;49.036;7.690;2024-03-08T01:46:00;5.40;99.90
16128;DHT22;8168;49.036;7.690;2024-03-08T01:53:36;5.30;99.90
16128;DHT22;8168;49.036;7.690;2024-03-08T01:56:07;5.30;99.90
16128;DHT22;8168;49.036;7.690;2024-03-08T01:58:41;5.30;99.90
16128;DHT22;8168;49.036;7.690;2024-03-08T02:01:14;5.20;99.90
16128;DHT22;8168;49.036;7.690;2024-03-08T02:03:45;5.20;99.90
16128;DHT22;8168;49.036;7.690;2024-03-08T02:06:16;5.20;99.90
16128;DHT22;8168;49.036;7.690;2024-03-08T02:08:47;5.20;99.90
16128;DHT22;8168;49.036;7.690;2024-03-08T02:11:19;5.10;99.90
16128;DHT22;8168;49.036;7.690;2024-03-08T02:13:51;5.20;99.90
16128;DHT22;8168;49.036;7.690;2024-03-08T02:18:53;5.10;99.90
16128;DHT22;8168;49.036;7.690;2024-03-08T02:21:24;5.10;99.90
16128;DHT22;8168;49.036;7.690;2024-03-08T02:23:55;5.20;99.90
16128;DHT22;8168;49.036;7.690;2024-03-08T02:28:57;5.10;99.90
16128;DHT22;8168;49.036;7.690;2024-03-08T02:31:28;5.10;99.90
16128;DHT22;8168;49.036;7.690;2024-03-08T02:33:58;5.10;99.90
16128;DHT22;8168;49.036;7.690;2024-03-08T02:36:29;5.10;99.90
16128;DHT22;8168;49.036;7.690;2024-03-08T02:39:02;4.90;99.90
16128;DHT22;8168;49.036;7.690;2024-03-08T02:41:33;4.90;99.90
16128;DHT22;8168;49.036;7.690;2024-03-08T02:44:04;4.80;99.90
16128;DHT22;8168;49.036;7.690;2024-03-08T02:46:34;4.80;99.90
16128;DHT22;8168;49.036;7.690;2024-03-08T02:49:06;4.80;99.90
16128;DHT22;8168;49.036;7.690;2024-03-08T02:51:38;4.80;99.90
16128;DHT22;8168;49.036;7.690;2024-03-08T02:54:09;4.70;99.90
16128;DHT22;8168;49.036;7.690;2024-03-08T02:56:40;4.60;99.90
16128;DHT22;8168;49.036;7.690;2024-03-08T02:59:12;4.70;99.90
16128;DHT22;8168;49.036;7.690;2024-03-08T03:01:43;4.70;99.90
16128;DHT22;8168;49.036;7.690;2024-03-08T03:04:14;4.60;99.90
16128;DHT22;8168;49.036;7.690;2024-03-08T03:06:45;4.60;99.90
16128;DHT22;8168;49.036;7.690;2024-03-08T03:09:16;4.60;99.90
16128;DHT22;8168;49.036;7.690;2024-03-08T03:11:54;4.60;99.90
16128;DHT22;8168;49.036;7.690;2024-03-08T03:14:25;4.50;99.90
16128;DHT22;8168;49.036;7.690;2024-03-08T03:16:57;4.50;99.90
16128;DHT22;8168;49.036;7.690;2024-03-08T03:19:28;4.50;99.90
16128;DHT22;8168;49.036;7.690;2024-03-08T03:21:59;4.50;99.90
16128;DHT22;8168;49.036;7.690;2024-03-08T03:24:30;4.50;99.90
16128;DHT22;8168;49.036;7.690;2024-03-08T03:27:01;4.40;99.90
16128;DHT22;8168;49.036;7.690;2024-03-08T03:29:31;4.40;99.90
16128;DHT22;8168;49.036;7.690;2024-03-08T03:32:02;4.40;99.90
16128;DHT22;8168;49.036;7.690;2024-03-08T03:34:34;4.40;99.90
16128;DHT22;8168;49.036;7.690;2024-03-08T03:37:07;4.40;99.90
16128;DHT22;8168;49.036;7.690;2024-03-08T03:39:39;4.40;99.90
16128;DHT22;8168;49.036;7.690;2024-03-08T03:42:19;4.30;99.90
16128;DHT22;8168;49.036;7.690;2024-03-08T03:44:50;4.30;99.90
16128;DHT22;8168;49.036;7.690;2024-03-08T03:47:20;4.30;99.90
16128;DHT22;8168;49.036;7.690;2024-03-08T03:49:51;4.20;99.90
16128;DHT22;8168;49.036;7.690;2024-03-08T03:52:24;4.20;99.90
16128;DHT22;8168;49.036;7.690;2024-03-08T03:54:54;4.10;99.90
16128;DHT22;8168;49.036;7.690;2024-03-08T03:57:25;4.10;99.90
16128;DHT22;8168;49.036;7.690;2024-03-08T03:59:55;4.10;99.90
16128;DHT22;8168;49.036;7.690;2024-03-08T04:02:30;4.10;99.90
16128;DHT22;8168;49.036;7.690;2024-03-08T04:05:00;4.00;99.90
16128;DHT22;8168;49.036;7.690;2024-03-08T04:07:31;4.10;99.90
16128;DHT22;8168;49.036;7.690;2024-03-08T04:10:02;4.00;99.90
16128;DHT22;8168;49.036;7.690;2024-03-08T04:12:34;4.00;99.90
16128;DHT22;8168;49.036;7.690;2024-03-08T04:15:05;4.00;99.90
16128;DHT22;8168;49.036;7.690;2024-03-08T04:17:38;4.00;99.90
16128;DHT22;8168;49.036;7.690;2024-03-08T04:20:09;3.90;99.90
16128;DHT22;8168;49.036;7.690;2024-03-08T04:22:40;4.00;99.90
16128;DHT22;8168;49.036;7.690;2024-03-08T04:25:11;4.00;99.90
16128;DHT22;8168;49.036;7.690;2024-03-08T04:27:42;4.00;99.90
16128;DHT22;8168;49.036;7.690;2024-03-08T04:30:12;4.00;99.90
16128;DHT22;8168;49.036;7.690;2024-03-08T04:32:44;3.90;99.90
16128;DHT22;8168;49.036;7.690;2024-03-08T04:35:14;3.90;99.90
16128;DHT22;8168;49.036;7.690;2024-03-08T04:37:46;3.90;99.90
16128;DHT22;8168;49.036;7.690;2024-03-08T04:40:16;4.10;99.90
16128;DHT22;8168;49.036;7.690;2024-03-08T04:42:49;3.90;99.90
16128;DHT22;8168;49.036;7.690;2024-03-08T04:45:21;3.90;99.90
16128;DHT22;8168;49.036;7.690;2024-03-08T04:47:52;3.90;99.90
16128;DHT22;8168;49.036;7.690;2024-03-08T04:50:23;2.50;99.90
16128;DHT22;8168;49.036;7.690;2024-03-08T04:52:54;3.70;99.90
16128;DHT22;8168;49.036;7.690;2024-03-08T04:55:25;3.70;99.90
16128;DHT22;8168;49.036;7.690;2024-03-08T04:57:55;3.70;99.90
16128;DHT22;8168;49.036;7.690;2024-03-08T05:00:26;3.70;99.90
16128;DHT22;8168;49.036;7.690;2024-03-08T05:02:56;3.60;99.90
16128;DHT22;8168;49.036;7.690;2024-03-08T05:05:27;3.70;99.90
16128;DHT22;8168;49.036;7.690;2024-03-08T05:07:59;3.80;99.90
16128;DHT22;8168;49.036;7.690;2024-03-08T05:10:31;3.70;99.90
16128;DHT22;8168;49.036;7.690;2024-03-08T05:13:03;3.80;99.90
16128;DHT22;8168;49.036;7.690;2024-03-08T05:15:33;3.70;99.90
16128;DHT22;8168;49.036;7.690;2024-03-08T05:18:05;3.70;99.90
16128;DHT22;8168;49.036;7.690;2024-03-08T05:20:36;3.70;99.90
16128;DHT22;8168;49.036;7.690;2024-03-08T05:23:07;3.70;99.90
16128;DHT22;8168;49.036;7.690;2024-03-08T05:25:38;3.70;99.90
16128;DHT22;8168;49.036;7.690;2024-03-08T05:28:09;4.10;99.90
16128;DHT22;8168;49.036;7.690;2024-03-08T05:30:39;3.70;99.90
16128;DHT22;8168;49.036;7.690;2024-03-08T05:33:10;3.60;99.90
16128;DHT22;8168;49.036;7.690;2024-03-08T05:35:41;3.70;99.90
16128;DHT22;8168;49.036;7.690;2024-03-08T05:38:12;3.50;99.90
16128;DHT22;8168;49.036;7.690;2024-03-08T05:40:43;3.60;99.90
16128;DHT22;8168;49.036;7.690;2024-03-08T05:43:13;3.40;99.90
16128;DHT22;8168;49.036;7.690;2024-03-08T05:45:47;3.40;99.90
16128;DHT22;8168;49.036;7.690;2024-03-08T05:48:18;3.30;99.90
16128;DHT22;8168;49.036;7.690;2024-03-08T05:50:49;3.20;99.90
16128;DHT22;8168;49.036;7.690;2024-03-08T05:53:19;3.20;99.90
16128;DHT22;8168;49.036;7.690;2024-03-08T05:55:50;3.20;99.90
16128;DHT22;8168;49.036;7.690;2024-03-08T05:58:20;3.20;99.90
16128;DHT22;8168;49.036;7.690;2024-03-08T06:00:51;3.20;99.90
16128;DHT22;8168;49.036;7.690;2024-03-08T06:03:22;3.20;99.90
16128;DHT22;8168;49.036;7.690;2024-03-08T06:05:52;3.10;99.90
16128;DHT22;8168;49.036;7.690;2024-03-08T06:08:23;3.40;99.90
16128;DHT22;8168;49.036;7.690;2024-03-08T06:10:53;3.10;99.90
16128;DHT22;8168;49.036;7.690;2024-03-08T06:13:24;3.10;99.90
16128;DHT22;8168;49.036;7.690;2024-03-08T06:15:55;3.00;99.90
16128;DHT22;8168;49.036;7.690;2024-03-08T06:18:25;3.00;99.90
16128;DHT22;8168;49.036;7.690;2024-03-08T06:20:56;3.00;99.90
16128;DHT22;8168;49.036;7.690;2024-03-08T06:23:27;2.90;99.90
16128;DHT22;8168;49.036;7.690;2024-03-08T06:25:57;3.40;99.90
16128;DHT22;8168;49.036;7.690;2024-03-08T06:28:28;2.90;99.90
16128;DHT22;8168;49.036;7.690;2024-03-08T06:30:59;2.90;99.90
16128;DHT22;8168;49.036;7.690;2024-03-08T06:33:31;3.10;99.90
16128;DHT22;8168;49.036;7.690;2024-03-08T06:36:05;2.90;99.90
16128;DHT22;8168;49.036;7.690;2024-03-08T06:38:36;2.70;99.90
16128;DHT22;8168;49.036;7.690;2024-03-08T06:41:12;3.20;99.90
16128;DHT22;8168;49.036;7.690;2024-03-08T06:43:46;2.90;99.90
16128;DHT22;8168;49.036;7.690;2024-03-08T06:46:18;2.90;99.90
16128;DHT22;8168;49.036;7.690;2024-03-08T06:48:50;2.90;99.90
16128;DHT22;8168;49.036;7.690;2024-03-08T06:51:21;3.30;99.90
16128;DHT22;8168;49.036;7.690;2024-03-08T06:53:52;3.10;99.90
16128;DHT22;8168;49.036;7.690;2024-03-08T06:56:23;3.10;99.90
16128;DHT22;8168;49.036;7.690;2024-03-08T06:58:53;3.60;99.90
16128;DHT22;8168;49.036;7.690;2024-03-08T07:01:24;3.10;99.90
16128;DHT22;8168;49.036;7.690;2024-03-08T07:03:55;3.10;99.90
16128;DHT22;8168;49.036;7.690;2024-03-08T07:06:27;3.20;99.90
16128;DHT22;8168;49.036;7.690;2024-03-08T07:08:59;3.30;99.90
16128;DHT22;8168;49.036;7.690;2024-03-08T07:11:29;3.30;99.90
16128;DHT22;8168;49.036;7.690;2024-03-08T07:14:00;4.00;99.90
16128;DHT22;8168;49.036;7.690;2024-03-08T07:16:33;3.50;99.90
16128;DHT22;8168;49.036;7.690;2024-03-08T07:19:04;3.60;99.90
16128;DHT22;8168;49.036;7.690;2024-03-08T07:21:35;3.60;99.90
16128;DHT22;8168;49.036;7.690;2024-03-08T07:24:06;3.70;99.90
16128;DHT22;8168;49.036;7.690;2024-03-08T07:26:52;3.70;99.90
16128;DHT22;8168;49.036;7.690;2024-03-08T07:31:53;3.80;99.90
16128;DHT22;8168;49.036;7.690;2024-03-08T07:34:33;3.80;99.90
16128;DHT22;8168;49.036;7.690;2024-03-08T07:37:04;3.80;99.90
16128;DHT22;8168;49.036;7.690;2024-03-08T07:39:34;3.90;99.90
16128;DHT22;8168;49.036;7.690;2024-03-08T07:42:05;3.90;99.90
16128;DHT22;8168;49.036;7.690;2024-03-08T07:44:36;3.90;99.90
16128;DHT22;8168;49.036;7.690;2024-03-08T07:47:06;4.00;99.90
16128;DHT22;8168;49.036;7.690;2024-03-08T07:49:39;4.20;99.90
16128;DHT22;8168;49.036;7.690;2024-03-08T07:52:10;4.20;99.90
16128;DHT22;8168;49.036;7.690;2024-03-08T07:54:45;4.20;99.90
16128;DHT22;8168;49.036;7.690;2024-03-08T07:57:16;4.30;99.90
16128;DHT22;8168;49.036;7.690;2024-03-08T07:59:47;4.50;99.90
16128;DHT22;8168;49.036;7.690;2024-03-08T08:04:48;4.50;99.90
16128;DHT22;8168;49.036;7.690;2024-03-08T08:07:19;4.50;99.90
16128;DHT22;8168;49.036;7.690;2024-03-08T08:09:50;4.60;99.90
16128;DHT22;8168;49.036;7.690;2024-03-08T08:12:20;4.60;99.90
16128;DHT22;8168;49.036;7.690;2024-03-08T08:14:51;4.60;99.90
16128;DHT22;8168;49.036;7.690;2024-03-08T08:17:22;4.60;99.90
16128;DHT22;8168;49.036;7.690;2024-03-08T08:19:52;4.70;99.90
16128;DHT22;8168;49.036;7.690;2024-03-08T08:22:23;4.70;99.90
16128;DHT22;8168;49.036;7.690;2024-03-08T08:24:53;4.90;99.90
16128;DHT22;8168;49.036;7.690;2024-03-08T08:27:24;4.90;99.90
16128;DHT22;8168;49.036;7.690;2024-03-08T08:29:56;4.90;99.90
16128;DHT22;8168;49.036;7.690;2024-03-08T08:32:27;4.90;99.90
16128;DHT22;8168;49.036;7.690;2024-03-08T08:34:57;5.00;99.90
16128;DHT22;8168;49.036;7.690;2024-03-08T08:37:30;5.10;99.90
16128;DHT22;8168;49.036;7.690;2024-03-08T08:40:01;5.10;99.90
16128;DHT22;8168;49.036;7.690;2024-03-08T08:42:36;5.30;99.90
16128;DHT22;8168;49.036;7.690;2024-03-08T08:45:08;5.30;99.90
16128;DHT22;8168;49.036;7.690;2024-03-08T08:47:39;5.40;99.90
16128;DHT22;8168;49.036;7.690;2024-03-08T08:50:13;5.50;99.90
16128;DHT22;8168;49.036;7.690;2024-03-08T08:52:43;5.60;99.90
16128;DHT22;8168;49.036;7.690;2024-03-08T08:55:14;5.60;99.90
16128;DHT22;8168;49.036;7.690;2024-03-08T08:57:45;5.60;99.90
16128;DHT22;8168;49.036;7.690;2024-03-08T09:00:16;5.50;99.90
16128;DHT22;8168;49.036;7.690;2024-03-08T09:02:46;5.50;99.90
16128;DHT22;8168;49.036;7.690;2024-03-08T09:05:18;5.50;99.90
16128;DHT22;8168;49.036;7.690;2024-03-08T09:07:49;5.60;99.90
16128;DHT22;8168;49.036;7.690;2024-03-08T09:10:20;5.70;99.90
16128;DHT22;8168;49.036;7.690;2024-03-08T09:15:23;5.70;99.90
16128;DHT22;8168;49.036;7.690;2024-03-08T09:17:53;5.70;99.90
16128;DHT22;8168;49.036;7.690;2024-03-08T09:20:24;5.80;99.90
16128;DHT22;8168;49.036;7.690;2024-03-08T09:22:55;5.80;99.90
16128;DHT22;8168;49.036;7.690;2024-03-08T09:25:26;5.90;99.90
16128;DHT22;8168;49.036;7.690;2024-03-08T09:27:56;5.80;99.90
16128;DHT22;8168;49.036;7.690;2024-03-08T09:30:27;5.90;99.90
16128;DHT22;8168;49.036;7.690;2024-03-08T09:32:58;5.90;99.90
16128;DHT22;8168;49.036;7.690;2024-03-08T09:35:28;6.00;99.90
16128;DHT22;8168;49.036;7.690;2024-03-08T09:38:00;6.20;99.90
16128;DHT22;8168;49.036;7.690;2024-03-08T09:40:31;6.30;99.90
16128;DHT22;8168;49.036;7.690;2024-03-08T09:43:01;6.30;99.90
16128;DHT22;8168;49.036;7.690;2024-03-08T09:45:36;6.40;99.90
16128;DHT22;8168;49.036;7.690;2024-03-08T09:48:13;6.60;99.90
16128;DHT22;8168;49.036;7.690;2024-03-08T09:50:44;6.60;99.90
16128;DHT22;8168;49.036;7.690;2024-03-08T09:53:15;6.70;99.90
16128;DHT22;8168;49.036;7.690;2024-03-08T09:55:47;6.70;99.90
16128;DHT22;8168;49.036;7.690;2024-03-08T09:58:19;6.70;99.90
16128;DHT22;8168;49.036;7.690;2024-03-08T10:00:50;6.70;99.90
16128;DHT22;8168;49.036;7.690;2024-03-08T10:03:21;6.80;99.90
16128;DHT22;8168;49.036;7.690;2024-03-08T10:05:53;7.10;99.90
16128;DHT22;8168;49.036;7.690;2024-03-08T10:08:30;7.00;99.90
16128;DHT22;8168;49.036;7.690;2024-03-08T10:11:01;7.20;99.90
16128;DHT22;8168;49.036;7.690;2024-03-08T10:13:32;7.30;99.90
16128;DHT22;8168;49.036;7.690;2024-03-08T10:16:03;7.50;99.90
16128;DHT22;8168;49.036;7.690;2024-03-08T10:18:35;7.70;99.90
16128;DHT22;8168;49.036;7.690;2024-03-08T10:21:07;7.90;99.90
16128;DHT22;8168;49.036;7.690;2024-03-08T10:23:40;8.00;99.90
16128;DHT22;8168;49.036;7.690;2024-03-08T10:26:17;8.20;99.90
16128;DHT22;8168;49.036;7.690;2024-03-08T10:28:50;8.30;99.90
16128;DHT22;8168;49.036;7.690;2024-03-08T10:31:21;8.30;99.90
16128;DHT22;8168;49.036;7.690;2024-03-08T10:33:52;8.30;99.90
16128;DHT22;8168;49.036;7.690;2024-03-08T10:36:22;8.40;99.90
16128;DHT22;8168;49.036;7.690;2024-03-08T10:38:53;8.60;99.90
16128;DHT22;8168;49.036;7.690;2024-03-08T10:41:24;8.70;99.90
16128;DHT22;8168;49.036;7.690;2024-03-08T10:47:00;8.70;99.90
16128;DHT22;8168;49.036;7.690;2024-03-08T10:49:41;8.70;99.90
16128;DHT22;8168;49.036;7.690;2024-03-08T10:52:18;8.60;99.90
16128;DHT22;8168;49.036;7.690;2024-03-08T10:54:50;8.20;99.90
16128;DHT22;8168;49.036;7.690;2024-03-08T10:57:23;8.10;99.90
16128;DHT22;8168;49.036;7.690;2024-03-08T10:59:55;8.10;99.90
16128;DHT22;8168;49.036;7.690;2024-03-08T11:02:26;8.00;99.90
16128;DHT22;8168;49.036;7.690;2024-03-08T11:04:57;7.90;99.90
16128;DHT22;8168;49.036;7.690;2024-03-08T11:07:28;7.90;99.90
16128;DHT22;8168;49.036;7.690;2024-03-08T11:10:03;7.90;99.90
16128;DHT22;8168;49.036;7.690;2024-03-08T11:12:41;7.90;99.90
16128;DHT22;8168;49.036;7.690;2024-03-08T11:15:13;8.00;99.90
16128;DHT22;8168;49.036;7.690;2024-03-08T11:17:49;8.10;99.90
16128;DHT22;8168;49.036;7.690;2024-03-08T11:20:20;8.00;99.90
16128;DHT22;8168;49.036;7.690;2024-03-08T11:22:53;7.90;99.90
16128;DHT22;8168;49.036;7.690;2024-03-08T11:25:41;7.90;99.90
16128;DHT22;8168;49.036;7.690;2024-03-08T11:28:33;7.80;99.90
16128;DHT22;8168;49.036;7.690;2024-03-08T11:33:36;7.70;99.90
16128;DHT22;8168;49.036;7.690;2024-03-08T11:36:11;7.60;99.90
16128;DHT22;8168;49.036;7.690;2024-03-08T11:38:45;7.70;99.90
16128;DHT22;8168;49.036;7.690;2024-03-08T11:41:21;7.80;99.90
16128;DHT22;8168;49.036;7.690;2024-03-08T11:44:05;7.80;99.90
16128;DHT22;8168;49.036;7.690;2024-03-08T11:46:35;8.10;99.90
16128;DHT22;8168;49.036;7.690;2024-03-08T11:49:06;8.10;99.90
16128;DHT22;8168;49.036;7.690;2024-03-08T11:51:36;8.30;99.90
16128;DHT22;8168;49.036;7.690;2024-03-08T11:54:12;8.30;99.90
16128;DHT22;8168;49.036;7.690;2024-03-08T11:56:46;8.10;99.90
16128;DHT22;8168;49.036;7.690;2024-03-08T11:59:18;8.00;99.90
16128;DHT22;8168;49.036;7.690;2024-03-08T12:02:05;7.90;99.90
16128;DHT22;8168;49.036;7.690;2024-03-08T12:04:36;7.90;99.90
16128;DHT22;8168;49.036;7.690;2024-03-08T12:07:10;7.90;99.90
16128;DHT22;8168;49.036;7.690;2024-03-08T12:09:42;8.00;99.90
16128;DHT22;8168;49.036;7.690;2024-03-08T12:14:48;8.00;99.90
16128;DHT22;8168;49.036;7.690;2024-03-08T12:17:19;8.30;99.90
16128;DHT22;8168;49.036;7.690;2024-03-08T12:19:49;8.50;99.90
16128;DHT22;8168;49.036;7.690;2024-03-08T12:22:25;8.80;99.90
16128;DHT22;8168;49.036;7.690;2024-03-08T12:25:06;9.00;99.90
16128;DHT22;8168;49.036;7.690;2024-03-08T12:27:41;9.20;99.90
16128;DHT22;8168;49.036;7.690;2024-03-08T12:32:54;9.40;99.90
16128;DHT22;8168;49.036;7.690;2024-03-08T12:35:28;9.10;99.90
16128;DHT22;8168;49.036;7.690;2024-03-08T12:37:59;8.80;99.90
16128;DHT22;8168;49.036;7.690;2024-03-08T12:40:31;8.70;99.90
16128;DHT22;8168;49.036;7.690;2024-03-08T12:43:10;8.50;99.90
16128;DHT22;8168;49.036;7.690;2024-03-08T12:45:42;8.50;99.90
16128;DHT22;8168;49.036;7.690;2024-03-08T12:48:13;8.60;99.90
16128;DHT22;8168;49.036;7.690;2024-03-08T12:50:45;8.80;99.90
16128;DHT22;8168;49.036;7.690;2024-03-08T12:53:18;8.90;99.90
16128;DHT22;8168;49.036;7.690;2024-03-08T12:55:48;9.00;99.90
16128;DHT22;8168;49.036;7.690;2024-03-08T12:58:19;9.10;99.90
16128;DHT22;8168;49.036;7.690;2024-03-08T13:00:50;9.20;99.90
16128;DHT22;8168;49.036;7.690;2024-03-08T13:03:21;9.10;99.90
16128;DHT22;8168;49.036;7.690;2024-03-08T13:08:24;9.10;99.90
16128;DHT22;8168;49.036;7.690;2024-03-08T13:10:58;9.10;99.90
16128;DHT22;8168;49.036;7.690;2024-03-08T13:13:29;9.10;99.90
16128;DHT22;8168;49.036;7.690;2024-03-08T13:16:00;9.30;99.90
16128;DHT22;8168;49.036;7.690;2024-03-08T13:18:31;9.50;99.90
16128;DHT22;8168;49.036;7.690;2024-03-08T13:21:02;9.50;99.90
16128;DHT22;8168;49.036;7.690;2024-03-08T13:23:37;9.60;99.90
16128;DHT22;8168;49.036;7.690;2024-03-08T13:26:12;9.80;99.90
16128;DHT22;8168;49.036;7.690;2024-03-08T13:28:46;9.90;99.90
16128;DHT22;8168;49.036;7.690;2024-03-08T13:31:22;10.00;99.90
16128;DHT22;8168;49.036;7.690;2024-03-08T13:33:53;10.10;99.90
16128;DHT22;8168;49.036;7.690;2024-03-08T13:36:28;10.10;99.90
16128;DHT22;8168;49.036;7.690;2024-03-08T13:39:09;10.10;99.90
16128;DHT22;8168;49.036;7.690;2024-03-08T13:41:45;10.00;99.90
16128;DHT22;8168;49.036;7.690;2024-03-08T13:44:16;9.90;99.90
16128;DHT22;8168;49.036;7.690;2024-03-08T13:46:47;9.80;99.90
16128;DHT22;8168;49.036;7.690;2024-03-08T13:49:21;9.90;99.90
16128;DHT22;8168;49.036;7.690;2024-03-08T13:51:52;9.80;99.90
16128;DHT22;8168;49.036;7.690;2024-03-08T13:54:25;9.70;99.90
16128;DHT22;8168;49.036;7.690;2024-03-08T13:56:58;9.80;99.90
16128;DHT22;8168;49.036;7.690;2024-03-08T13:59:29;9.90;99.90
16128;DHT22;8168;49.036;7.690;2024-03-08T14:02:00;10.00;99.90
16128;DHT22;8168;49.036;7.690;2024-03-08T14:04:32;10.00;99.90
16128;DHT22;8168;49.036;7.690;2024-03-08T14:07:03;10.10;99.90
16128;DHT22;8168;49.036;7.690;2024-03-08T14:09:34;10.00;99.90
16128;DHT22;8168;49.036;7.690;2024-03-08T14:12:07;10.00;99.90
16128;DHT22;8168;49.036;7.690;2024-03-08T14:14:38;10.10;99.90
16128;DHT22;8168;49.036;7.690;2024-03-08T14:17:09;10.30;99.90
16128;DHT22;8168;49.036;7.690;2024-03-08T14:19:41;10.20;99.90
16128;DHT22;8168;49.036;7.690;2024-03-08T14:22:11;10.30;99.90
16128;DHT22;8168;49.036;7.690;2024-03-08T14:24:44;10.30;99.90
16128;DHT22;8168;49.036;7.690;2024-03-08T14:27:15;10.20;99.90
16128;DHT22;8168;49.036;7.690;2024-03-08T14:29:48;10.10;99.90
16128;DHT22;8168;49.036;7.690;2024-03-08T14:32:19;10.10;99.90
16128;DHT22;8168;49.036;7.690;2024-03-08T14:34:51;10.10;99.90
16128;DHT22;8168;49.036;7.690;2024-03-08T14:37:22;10.20;99.90
16128;DHT22;8168;49.036;7.690;2024-03-08T14:39:58;10.20;99.90
16128;DHT22;8168;49.036;7.690;2024-03-08T14:42:29;10.20;99.90
16128;DHT22;8168;49.036;7.690;2024-03-08T14:45:00;10.20;99.90
16128;DHT22;8168;49.036;7.690;2024-03-08T14:47:31;10.20;99.90
16128;DHT22;8168;49.036;7.690;2024-03-08T14:50:01;10.10;99.90
16128;DHT22;8168;49.036;7.690;2024-03-08T14:52:32;10.10;99.90
16128;DHT22;8168;49.036;7.690;2024-03-08T14:55:05;10.10;99.90
16128;DHT22;8168;49.036;7.690;2024-03-08T14:57:36;10.10;99.90
16128;DHT22;8168;49.036;7.690;2024-03-08T15:00:10;10.10;99.90
16128;DHT22;8168;49.036;7.690;2024-03-08T15:02:47;10.00;99.90
16128;DHT22;8168;49.036;7.690;2024-03-08T15:05:18;9.90;99.90
16128;DHT22;8168;49.036;7.690;2024-03-08T15:07:51;10.00;99.90
16128;DHT22;8168;49.036;7.690;2024-03-08T15:10:22;10.00;99.90
16128;DHT22;8168;49.036;7.690;2024-03-08T15:12:56;10.00;99.90
16128;DHT22;8168;49.036;7.690;2024-03-08T15:15:29;10.00;99.90
16128;DHT22;8168;49.036;7.690;2024-03-08T15:18:00;10.00;99.90
16128;DHT22;8168;49.036;7.690;2024-03-08T15:20:34;10.00;99.90
16128;DHT22;8168;49.036;7.690;2024-03-08T15:23:05;10.00;99.90
16128;DHT22;8168;49.036;7.690;2024-03-08T15:25:36;10.10;99.90
16128;DHT22;8168;49.036;7.690;2024-03-08T15:28:09;10.00;99.90
16128;DHT22;8168;49.036;7.690;2024-03-08T15:30:45;10.00;99.90
16128;DHT22;8168;49.036;7.690;2024-03-08T15:33:17;10.10;99.90
16128;DHT22;8168;49.036;7.690;2024-03-08T15:35:54;10.00;99.90
16128;DHT22;8168;49.036;7.690;2024-03-08T15:38:29;10.00;99.90
16128;DHT22;8168;49.036;7.690;2024-03-08T15:41:00;10.00;99.90
16128;DHT22;8168;49.036;7.690;2024-03-08T15:43:33;9.90;99.90
16128;DHT22;8168;49.036;7.690;2024-03-08T15:46:08;9.90;99.90
16128;DHT22;8168;49.036;7.690;2024-03-08T15:48:39;9.90;99.90
16128;DHT22;8168;49.036;7.690;2024-03-08T15:51:15;9.90;99.90
16128;DHT22;8168;49.036;7.690;2024-03-08T15:53:48;10.00;99.90
16128;DHT22;8168;49.036;7.690;2024-03-08T15:56:23;10.00;99.90
16128;DHT22;8168;49.036;7.690;2024-03-08T15:58:54;10.00;99.90
16128;DHT22;8168;49.036;7.690;2024-03-08T16:01:25;9.90;99.90
16128;DHT22;8168;49.036;7.690;2024-03-08T16:03:56;9.90;99.90
16128;DHT22;8168;49.036;7.690;2024-03-08T16:06:28;9.80;99.90
16128;DHT22;8168;49.036;7.690;2024-03-08T16:08:59;9.80;99.90
16128;DHT22;8168;49.036;7.690;2024-03-08T16:11:30;9.70;99.90
16128;DHT22;8168;49.036;7.690;2024-03-08T16:14:03;9.70;99.90
16128;DHT22;8168;49.036;7.690;2024-03-08T16:16:33;9.70;99.90
16128;DHT22;8168;49.036;7.690;2024-03-08T16:19:04;9.70;99.90
16128;DHT22;8168;49.036;7.690;2024-03-08T16:21:37;9.70;99.90
16128;DHT22;8168;49.036;7.690;2024-03-08T16:24:08;9.60;99.90
16128;DHT22;8168;49.036;7.690;2024-03-08T16:26:39;9.60;99.90
16128;DHT22;8168;49.036;7.690;2024-03-08T16:29:11;9.50;99.90
16128;DHT22;8168;49.036;7.690;2024-03-08T16:31:43;9.50;99.90
16128;DHT22;8168;49.036;7.690;2024-03-08T16:34:15;9.40;99.90
16128;DHT22;8168;49.036;7.690;2024-03-08T16:36:46;9.30;99.90
16128;DHT22;8168;49.036;7.690;2024-03-08T16:39:17;9.30;99.90
16128;DHT22;8168;49.036;7.690;2024-03-08T16:41:49;9.20;99.90
16128;DHT22;8168;49.036;7.690;2024-03-08T16:44:19;9.10;99.90
16128;DHT22;8168;49.036;7.690;2024-03-08T16:46:51;9.10;99.90
16128;DHT22;8168;49.036;7.690;2024-03-08T16:49:22;9.10;99.90
16128;DHT22;8168;49.036;7.690;2024-03-08T16:51:53;9.10;99.90
16128;DHT22;8168;49.036;7.690;2024-03-08T16:54:24;9.10;99.90
16128;DHT22;8168;49.036;7.690;2024-03-08T16:56:54;9.10;99.90
16128;DHT22;8168;49.036;7.690;2024-03-08T16:59:25;9.10;99.90
16128;DHT22;8168;49.036;7.690;2024-03-08T17:01:57;9.10;99.90
16128;DHT22;8168;49.036;7.690;2024-03-08T17:04:31;9.10;99.90
16128;DHT22;8168;49.036;7.690;2024-03-08T17:07:01;9.00;99.90
16128;DHT22;8168;49.036;7.690;2024-03-08T17:09:33;9.00;99.90
16128;DHT22;8168;49.036;7.690;2024-03-08T17:12:04;8.90;99.90
16128;DHT22;8168;49.036;7.690;2024-03-08T17:14:37;8.90;99.90
16128;DHT22;8168;49.036;7.690;2024-03-08T17:17:11;8.90;99.90
16128;DHT22;8168;49.036;7.690;2024-03-08T17:19:42;8.80;99.90
16128;DHT22;8168;49.036;7.690;2024-03-08T17:22:13;8.80;99.90
16128;DHT22;8168;49.036;7.690;2024-03-08T17:24:44;8.80;99.90
16128;DHT22;8168;49.036;7.690;2024-03-08T17:27:15;8.80;99.90
16128;DHT22;8168;49.036;7.690;2024-03-08T17:29:46;8.80;99.90
16128;DHT22;8168;49.036;7.690;2024-03-08T17:32:17;8.70;99.90
16128;DHT22;8168;49.036;7.690;2024-03-08T17:34:48;8.70;99.90
16128;DHT22;8168;49.036;7.690;2024-03-08T17:37:19;8.70;99.90
16128;DHT22;8168;49.036;7.690;2024-03-08T17:39:49;8.60;99.90
16128;DHT22;8168;49.036;7.690;2024-03-08T17:42:20;8.60;99.90
16128;DHT22;8168;49.036;7.690;2024-03-08T17:44:51;8.60;99.90
16128;DHT22;8168;49.036;7.690;2024-03-08T17:47:22;8.40;99.90
16128;DHT22;8168;49.036;7.690;2024-03-08T17:49:53;8.40;99.90
16128;DHT22;8168;49.036;7.690;2024-03-08T17:52:23;8.30;99.90
16128;DHT22;8168;49.036;7.690;2024-03-08T17:54:54;8.20;99.90
16128;DHT22;8168;49.036;7.690;2024-03-08T17:57:25;8.20;99.90
16128;DHT22;8168;49.036;7.690;2024-03-08T17:59:56;8.20;99.90
16128;DHT22;8168;49.036;7.690;2024-03-08T18:02:26;8.20;99.90
16128;DHT22;8168;49.036;7.690;2024-03-08T18:04:57;8.20;99.90
16128;DHT22;8168;49.036;7.690;2024-03-08T18:07:28;8.30;99.90